AFL576 UUEE-VTSP
Flight info
| Callsign | AFL576 |
|---|---|
| Flight time | N/A |
| Altitude | 33000 |
| Route | TOGMO3H TOGMO M56 DENUD M161 GERLI/K0891F350 M161 MILSO M875 AMDAR/N0484F350 M875 TAPIS L509 NONIB T400 SULOM A466 DPN L759 KKJ/N0486F370 L759 SATVA SATVA1D |
| Aircraft | B77W/H-SDE1E2E3FGHIJ2J3J4J5M1RWXY/LB1D1 |
Departure
| Time | 2026-04-30 14:42 |
|---|---|
| Airport | Sheremetyevo International Airport (UUEE) |
Arrival
| Time | N/A |
|---|---|
| Airport | Phuket International Airport (VTSP) |
| Time | Latitude | Longitude | Altitude | Speed | Heading |
|---|---|---|---|---|---|
| 2026-04-30 13:34 | 55.97369 | 37.38940 | 645 ft | 0 kts | 344° |
| 2026-04-30 14:28 | 55.97361 | 37.38944 | 645 ft | 2 kts | 344° |
| 2026-04-30 14:28 | 55.97347 | 37.38951 | 645 ft | 2 kts | 344° |
| 2026-04-30 14:29 | 55.97318 | 37.38957 | 645 ft | 2 kts | 19° |
| 2026-04-30 14:29 | 55.97298 | 37.38932 | 645 ft | 2 kts | 56° |
| 2026-04-30 14:30 | 55.97291 | 37.38906 | 645 ft | 0 kts | 75° |
| 2026-04-30 14:32 | 55.97293 | 37.38918 | 645 ft | 2 kts | 75° |
| 2026-04-30 14:32 | 55.97301 | 37.38971 | 645 ft | 6 kts | 74° |
| 2026-04-30 14:32 | 55.97312 | 37.39046 | 644 ft | 5 kts | 82° |
| 2026-04-30 14:33 | 55.97294 | 37.39099 | 645 ft | 5 kts | 158° |
| 2026-04-30 14:33 | 55.97240 | 37.39207 | 645 ft | 8 kts | 86° |
| 2026-04-30 14:33 | 55.97254 | 37.39319 | 645 ft | 10 kts | 75° |
| 2026-04-30 14:34 | 55.97274 | 37.39449 | 645 ft | 11 kts | 75° |
| 2026-04-30 14:34 | 55.97297 | 37.39598 | 645 ft | 13 kts | 74° |
| 2026-04-30 14:34 | 55.97322 | 37.39767 | 645 ft | 14 kts | 74° |
| 2026-04-30 14:34 | 55.97350 | 37.39952 | 645 ft | 15 kts | 75° |
| 2026-04-30 14:35 | 55.97400 | 37.40288 | 645 ft | 17 kts | 75° |
| 2026-04-30 14:35 | 55.97443 | 37.40573 | 645 ft | 18 kts | 75° |
| 2026-04-30 14:35 | 55.97477 | 37.40801 | 645 ft | 19 kts | 74° |
| 2026-04-30 14:36 | 55.97512 | 37.41035 | 645 ft | 20 kts | 75° |
| 2026-04-30 14:36 | 55.97549 | 37.41280 | 645 ft | 20 kts | 75° |
| 2026-04-30 14:36 | 55.97586 | 37.41533 | 645 ft | 21 kts | 75° |
| 2026-04-30 14:36 | 55.97625 | 37.41788 | 645 ft | 21 kts | 74° |
| 2026-04-30 14:37 | 55.97664 | 37.42041 | 645 ft | 20 kts | 74° |
| 2026-04-30 14:37 | 55.97699 | 37.42281 | 645 ft | 19 kts | 75° |
| 2026-04-30 14:37 | 55.97734 | 37.42509 | 645 ft | 18 kts | 75° |
| 2026-04-30 14:37 | 55.97765 | 37.42722 | 645 ft | 17 kts | 75° |
| 2026-04-30 14:38 | 55.97795 | 37.42930 | 645 ft | 16 kts | 75° |
| 2026-04-30 14:38 | 55.97825 | 37.43127 | 645 ft | 16 kts | 75° |
| 2026-04-30 14:38 | 55.97854 | 37.43316 | 645 ft | 15 kts | 74° |
| 2026-04-30 14:38 | 55.97881 | 37.43496 | 645 ft | 14 kts | 75° |
| 2026-04-30 14:39 | 55.97908 | 37.43675 | 645 ft | 14 kts | 74° |
| 2026-04-30 14:39 | 55.97933 | 37.43844 | 645 ft | 14 kts | 75° |
| 2026-04-30 14:39 | 55.97947 | 37.43944 | 645 ft | 5 kts | 79° |
| 2026-04-30 14:40 | 55.97902 | 37.44035 | 645 ft | 6 kts | 156° |
| 2026-04-30 14:40 | 55.97858 | 37.44063 | 645 ft | 7 kts | 164° |
| 2026-04-30 14:40 | 55.97810 | 37.44083 | 645 ft | 5 kts | 183° |
| 2026-04-30 14:40 | 55.97787 | 37.44048 | 645 ft | 3 kts | 248° |
| 2026-04-30 14:41 | 55.97783 | 37.44026 | 645 ft | 2 kts | 253° |
| 2026-04-30 14:41 | 55.97746 | 37.43786 | 645 ft | 50 kts | 255° |
| 2026-04-30 14:41 | 55.97597 | 37.42778 | 645 ft | 116 kts | 255° |
| 2026-04-30 14:41 | 55.97337 | 37.41052 | 646 ft | 172 kts | 255° |
| 2026-04-30 14:42 | 55.97015 | 37.38831 | 1073 ft | 186 kts | 256° |
| 2026-04-30 14:42 | 55.96643 | 37.36554 | 1642 ft | 197 kts | 256° |
| 2026-04-30 14:42 | 55.96276 | 37.34217 | 2188 ft | 199 kts | 257° |
| 2026-04-30 14:42 | 55.95901 | 37.31815 | 2731 ft | 201 kts | 256° |
| 2026-04-30 14:43 | 55.95527 | 37.29433 | 3258 ft | 204 kts | 257° |
| 2026-04-30 14:43 | 55.95142 | 37.26978 | 3758 ft | 208 kts | 257° |
| 2026-04-30 14:43 | 55.94743 | 37.24430 | 4080 ft | 223 kts | 257° |
| 2026-04-30 14:43 | 55.94309 | 37.21661 | 4412 ft | 239 kts | 256° |
| 2026-04-30 14:44 | 55.93843 | 37.18699 | 4776 ft | 255 kts | 256° |
| 2026-04-30 14:44 | 55.93360 | 37.15636 | 5418 ft | 259 kts | 256° |
| 2026-04-30 14:44 | 55.92877 | 37.12592 | 6114 ft | 261 kts | 256° |
| 2026-04-30 14:44 | 55.92382 | 37.09481 | 6805 ft | 263 kts | 256° |
| 2026-04-30 14:45 | 55.91880 | 37.06314 | 7440 ft | 267 kts | 257° |
| 2026-04-30 14:45 | 55.91711 | 37.03061 | 8009 ft | 267 kts | 280° |
| 2026-04-30 14:45 | 55.92290 | 37.00009 | 8602 ft | 266 kts | 303° |
| 2026-04-30 14:45 | 55.93525 | 36.97595 | 9218 ft | 265 kts | 323° |
| 2026-04-30 14:46 | 55.95016 | 36.95659 | 9869 ft | 267 kts | 326° |
| 2026-04-30 14:46 | 55.96545 | 36.93790 | 10455 ft | 270 kts | 329° |
| 2026-04-30 14:46 | 55.98274 | 36.92503 | 10996 ft | 273 kts | 348° |
| 2026-04-30 14:46 | 55.99539 | 36.92261 | 11375 ft | 276 kts | 1° |
| 2026-04-30 14:47 | 56.01997 | 36.93349 | 12162 ft | 281 kts | 27° |
| 2026-04-30 14:47 | 56.03669 | 36.95179 | 12798 ft | 283 kts | 31° |
| 2026-04-30 14:47 | 56.05290 | 36.97096 | 13424 ft | 285 kts | 32° |
| 2026-04-30 14:47 | 56.06946 | 36.99049 | 14036 ft | 288 kts | 31° |
| 2026-04-30 14:48 | 56.08632 | 37.01025 | 14673 ft | 291 kts | 31° |
| 2026-04-30 14:48 | 56.10294 | 37.03068 | 15317 ft | 294 kts | 39° |
| 2026-04-30 14:48 | 56.11661 | 37.05784 | 15925 ft | 300 kts | 55° |
| 2026-04-30 14:48 | 56.12545 | 37.09196 | 16531 ft | 306 kts | 71° |
| 2026-04-30 14:49 | 56.13078 | 37.12855 | 17145 ft | 309 kts | 73° |
| 2026-04-30 14:49 | 56.13586 | 37.16588 | 17772 ft | 311 kts | 73° |
| 2026-04-30 14:49 | 56.14105 | 37.20341 | 18377 ft | 313 kts | 73° |
| 2026-04-30 14:49 | 56.14375 | 37.24248 | 18935 ft | 319 kts | 86° |
| 2026-04-30 14:50 | 56.13361 | 37.32335 | 19380 ft | 354 kts | 115° |
| 2026-04-30 14:50 | 56.11976 | 37.35974 | 19824 ft | 363 kts | 130° |
| 2026-04-30 14:51 | 56.07757 | 37.41027 | 20890 ft | 375 kts | 154° |
| 2026-04-30 14:51 | 56.05381 | 37.42927 | 21398 ft | 379 kts | 153° |
| 2026-04-30 14:51 | 56.00543 | 37.46870 | 22406 ft | 386 kts | 152° |
| 2026-04-30 14:52 | 55.98223 | 37.49250 | 22859 ft | 387 kts | 141° |
| 2026-04-30 14:52 | 55.94537 | 37.56109 | 23731 ft | 385 kts | 117° |
| 2026-04-30 14:52 | 55.93309 | 37.60325 | 24172 ft | 383 kts | 106° |
| 2026-04-30 14:53 | 55.92073 | 37.69429 | 25102 ft | 381 kts | 96° |
| 2026-04-30 14:53 | 55.91411 | 37.74010 | 25480 ft | 389 kts | 107° |
| 2026-04-30 14:54 | 55.88905 | 37.82688 | 26268 ft | 398 kts | 116° |
| 2026-04-30 14:54 | 55.85643 | 37.90805 | 26618 ft | 421 kts | 133° |
| 2026-04-30 14:55 | 55.80682 | 37.96801 | 27100 ft | 439 kts | 155° |
| 2026-04-30 14:55 | 55.77784 | 37.98565 | 27430 ft | 446 kts | 166° |
| 2026-04-30 14:55 | 55.71603 | 37.98313 | 28013 ft | 455 kts | 195° |
| 2026-04-30 14:56 | 55.65822 | 37.93773 | 28726 ft | 458 kts | 209° |
| 2026-04-30 14:56 | 55.59956 | 37.89107 | 28908 ft | 478 kts | 197° |
| 2026-04-30 14:57 | 55.56635 | 37.87867 | 28911 ft | 491 kts | 187° |
| 2026-04-30 14:57 | 55.49735 | 37.88237 | 29240 ft | 505 kts | 171° |
| 2026-04-30 14:58 | 55.42865 | 37.90024 | 30230 ft | 500 kts | 166° |
| 2026-04-30 14:58 | 55.39521 | 37.91759 | 30672 ft | 497 kts | 157° |
| 2026-04-30 14:58 | 55.33533 | 37.97465 | 31321 ft | 494 kts | 144° |
| 2026-04-30 14:59 | 55.27833 | 38.04139 | 32019 ft | 493 kts | 144° |
| 2026-04-30 15:00 | 55.19358 | 38.14056 | 32999 ft | 492 kts | 144° |
| 2026-04-30 15:00 | 55.13636 | 38.20728 | 33175 ft | 495 kts | 144° |
| 2026-04-30 15:01 | 55.07937 | 38.27351 | 33180 ft | 492 kts | 144° |
| 2026-04-30 15:01 | 54.99410 | 38.37219 | 33177 ft | 492 kts | 144° |
| 2026-04-30 15:02 | 54.93736 | 38.43756 | 33176 ft | 491 kts | 145° |
| 2026-04-30 15:03 | 54.79590 | 38.59962 | 33172 ft | 490 kts | 145° |
| 2026-04-30 15:04 | 54.65155 | 38.75376 | 33176 ft | 488 kts | 149° |
| 2026-04-30 15:06 | 54.50632 | 38.90388 | 33175 ft | 488 kts | 149° |
| 2026-04-30 15:07 | 54.39756 | 39.03832 | 33171 ft | 485 kts | 129° |
| 2026-04-30 15:07 | 54.36239 | 39.13589 | 33165 ft | 484 kts | 112° |
| 2026-04-30 15:08 | 54.33641 | 39.24230 | 33162 ft | 485 kts | 111° |
| 2026-04-30 15:09 | 54.27189 | 39.50762 | 33160 ft | 485 kts | 112° |
| 2026-04-30 15:10 | 54.21976 | 39.71979 | 33162 ft | 485 kts | 112° |
| 2026-04-30 15:11 | 54.14131 | 40.03537 | 33161 ft | 484 kts | 113° |
| 2026-04-30 15:13 | 54.08686 | 40.30651 | 33158 ft | 485 kts | 106° |
| 2026-04-30 15:14 | 54.01977 | 40.68961 | 33145 ft | 484 kts | 107° |
| 2026-04-30 15:17 | 53.93359 | 41.18171 | 33138 ft | 486 kts | 105° |
| 2026-04-30 15:19 | 53.86087 | 41.62065 | 33129 ft | 486 kts | 106° |
| 2026-04-30 17:39 | 42.95965 | 62.54324 | 34953 ft | 463 kts | 150° |
| 2026-04-30 17:42 | 42.69132 | 62.78927 | 34970 ft | 467 kts | 151° |
| 2026-04-30 17:43 | 42.55655 | 62.91185 | 34956 ft | 467 kts | 151° |
| 2026-04-30 17:44 | 42.39431 | 63.05857 | 34961 ft | 469 kts | 151° |
| 2026-04-30 17:47 | 42.14916 | 63.27850 | 34953 ft | 472 kts | 151° |
| 2026-04-30 17:48 | 41.95761 | 63.44892 | 34951 ft | 472 kts | 151° |
| 2026-04-30 17:50 | 41.73782 | 63.64291 | 34944 ft | 473 kts | 151° |
| 2026-04-30 17:52 | 41.57248 | 63.78778 | 34940 ft | 474 kts | 152° |
| 2026-04-30 17:54 | 41.32346 | 64.00436 | 34952 ft | 475 kts | 151° |
| 2026-04-30 17:56 | 41.10166 | 64.19576 | 34932 ft | 479 kts | 151° |
| 2026-04-30 17:58 | 40.93421 | 64.33923 | 34922 ft | 479 kts | 151° |
| 2026-04-30 18:00 | 40.71074 | 64.52932 | 34937 ft | 479 kts | 151° |
| 2026-04-30 18:01 | 40.57034 | 64.64797 | 34925 ft | 481 kts | 151° |
| 2026-04-30 18:02 | 40.40185 | 64.78956 | 34916 ft | 481 kts | 152° |
| 2026-04-30 18:04 | 40.23264 | 64.93091 | 34929 ft | 482 kts | 152° |
| 2026-04-30 18:06 | 40.00601 | 65.11890 | 34932 ft | 483 kts | 152° |
| 2026-04-30 18:08 | 39.80696 | 65.28277 | 34937 ft | 485 kts | 152° |
| 2026-04-30 18:10 | 39.57849 | 65.46947 | 34932 ft | 486 kts | 152° |
| 2026-04-30 18:11 | 39.37803 | 65.63207 | 34711 ft | 486 kts | 152° |
| 2026-04-30 18:12 | 39.29102 | 65.70229 | 34919 ft | 490 kts | 153° |
| 2026-04-30 18:13 | 39.23343 | 65.74866 | 34928 ft | 491 kts | 153° |
| 2026-04-30 18:14 | 39.08878 | 65.86472 | 34921 ft | 491 kts | 153° |
| 2026-04-30 18:15 | 38.91449 | 66.00382 | 34916 ft | 492 kts | 153° |
| 2026-04-30 18:16 | 38.79803 | 66.09631 | 34932 ft | 495 kts | 153° |
| 2026-04-30 18:17 | 38.73970 | 66.14251 | 34918 ft | 493 kts | 153° |
| 2026-04-30 18:18 | 38.65213 | 66.21169 | 34941 ft | 494 kts | 153° |
| 2026-04-30 18:18 | 38.59383 | 66.25787 | 34953 ft | 494 kts | 152° |
| 2026-04-30 18:19 | 38.53558 | 66.30486 | 34980 ft | 497 kts | 152° |
| 2026-04-30 18:19 | 38.47720 | 66.35187 | 34997 ft | 496 kts | 153° |
| 2026-04-30 18:20 | 38.41878 | 66.39877 | 35012 ft | 498 kts | 153° |
| 2026-04-30 18:20 | 38.36022 | 66.44568 | 35017 ft | 497 kts | 153° |
| 2026-04-30 18:21 | 38.30173 | 66.49243 | 35040 ft | 499 kts | 153° |
| 2026-04-30 18:21 | 38.24257 | 66.53963 | 35054 ft | 498 kts | 153° |
| 2026-04-30 18:22 | 38.18370 | 66.58649 | 35081 ft | 499 kts | 153° |
| 2026-04-30 18:22 | 38.09564 | 66.65643 | 35114 ft | 501 kts | 154° |
| 2026-04-30 18:23 | 38.03644 | 66.70335 | 35123 ft | 500 kts | 154° |
| 2026-04-30 18:23 | 37.97706 | 66.75007 | 35148 ft | 501 kts | 154° |
| 2026-04-30 18:24 | 37.88792 | 66.81956 | 35110 ft | 505 kts | 154° |
| 2026-04-30 18:25 | 37.82834 | 66.86594 | 35069 ft | 503 kts | 154° |
| 2026-04-30 18:25 | 37.73915 | 66.93517 | 35013 ft | 503 kts | 154° |
| 2026-04-30 18:26 | 37.64951 | 67.00458 | 34973 ft | 506 kts | 154° |
| 2026-04-30 18:27 | 37.55963 | 67.07398 | 34964 ft | 506 kts | 154° |
| 2026-04-30 18:28 | 37.46941 | 67.14343 | 34939 ft | 506 kts | 154° |
| 2026-04-30 18:28 | 37.37960 | 67.21240 | 34930 ft | 504 kts | 154° |
| 2026-04-30 18:29 | 37.25877 | 67.30484 | 34904 ft | 507 kts | 154° |
| 2026-04-30 18:30 | 37.13696 | 67.39369 | 34900 ft | 506 kts | 158° |
| 2026-04-30 18:31 | 37.04384 | 67.45792 | 35019 ft | 511 kts | 157° |
| 2026-04-30 18:32 | 36.98227 | 67.50047 | 34913 ft | 503 kts | 157° |
| 2026-04-30 18:32 | 36.95143 | 67.52174 | 34919 ft | 506 kts | 157° |
| 2026-04-30 18:33 | 36.85815 | 67.58604 | 34927 ft | 513 kts | 157° |
| 2026-04-30 18:33 | 36.76494 | 67.65018 | 34960 ft | 512 kts | 158° |
| 2026-04-30 18:34 | 36.67099 | 67.71481 | 34974 ft | 512 kts | 158° |
| 2026-04-30 18:35 | 36.60899 | 67.75752 | 35035 ft | 512 kts | 158° |
| 2026-04-30 18:35 | 36.54671 | 67.80035 | 35058 ft | 514 kts | 158° |
| 2026-04-30 18:36 | 36.45309 | 67.86458 | 35124 ft | 514 kts | 158° |
| 2026-04-30 18:37 | 36.35895 | 67.92899 | 35148 ft | 512 kts | 158° |
| 2026-04-30 18:37 | 36.29676 | 67.97142 | 35149 ft | 513 kts | 158° |
| 2026-04-30 18:38 | 36.23416 | 68.01405 | 35201 ft | 516 kts | 158° |
| 2026-04-30 18:38 | 36.17107 | 68.05696 | 35174 ft | 512 kts | 159° |
| 2026-04-30 18:39 | 36.10899 | 68.09909 | 35203 ft | 514 kts | 158° |
| 2026-04-30 18:39 | 36.04565 | 68.14197 | 35252 ft | 519 kts | 159° |
| 2026-04-30 18:39 | 36.01418 | 68.16328 | 35439 ft | 516 kts | 159° |
| 2026-04-30 18:40 | 35.98260 | 68.18463 | 35315 ft | 516 kts | 159° |
| 2026-04-30 18:40 | 35.92001 | 68.22688 | 35301 ft | 515 kts | 159° |
| 2026-04-30 18:41 | 35.85673 | 68.26949 | 35327 ft | 519 kts | 159° |
| 2026-04-30 18:41 | 35.79351 | 68.31203 | 35338 ft | 515 kts | 159° |
| 2026-04-30 18:42 | 35.73044 | 68.35434 | 35345 ft | 518 kts | 159° |
| 2026-04-30 18:42 | 35.63530 | 68.41805 | 35341 ft | 521 kts | 159° |
| 2026-04-30 18:45 | 35.28668 | 68.64877 | 35412 ft | 516 kts | 159° |
| 2026-04-30 18:46 | 35.22286 | 68.69069 | 35433 ft | 522 kts | 160° |
| 2026-04-30 18:46 | 35.15876 | 68.73276 | 35417 ft | 523 kts | 160° |
| 2026-04-30 18:47 | 35.09474 | 68.77471 | 35381 ft | 520 kts | 160° |
| 2026-04-30 18:47 | 35.03141 | 68.81610 | 35385 ft | 524 kts | 160° |
| 2026-04-30 18:48 | 34.96736 | 68.85792 | 35345 ft | 520 kts | 160° |
| 2026-04-30 18:48 | 34.90346 | 68.89957 | 35363 ft | 518 kts | 160° |
| 2026-04-30 18:49 | 34.83938 | 68.94121 | 35357 ft | 525 kts | 160° |
| 2026-04-30 18:49 | 34.77539 | 68.98278 | 35333 ft | 521 kts | 160° |
| 2026-04-30 18:50 | 34.71057 | 69.02477 | 35322 ft | 525 kts | 160° |
| 2026-04-30 18:50 | 34.64663 | 69.06615 | 35299 ft | 522 kts | 160° |
| 2026-04-30 18:51 | 34.58237 | 69.10770 | 35265 ft | 525 kts | 158° |
| 2026-04-30 18:51 | 34.52324 | 69.16132 | 35264 ft | 544 kts | 140° |
| 2026-04-30 18:52 | 34.47735 | 69.23485 | 35274 ft | 553 kts | 121° |
| 2026-04-30 18:52 | 34.44253 | 69.31898 | 35288 ft | 560 kts | 119° |
| 2026-04-30 18:53 | 34.40807 | 69.40267 | 35322 ft | 557 kts | 119° |
| 2026-04-30 18:53 | 34.37307 | 69.48631 | 35363 ft | 557 kts | 120° |
| 2026-04-30 18:54 | 34.33785 | 69.56966 | 35368 ft | 559 kts | 119° |
| 2026-04-30 18:54 | 34.30218 | 69.65346 | 35356 ft | 559 kts | 120° |
| 2026-04-30 18:55 | 34.26654 | 69.73682 | 35316 ft | 556 kts | 120° |
| 2026-04-30 18:55 | 34.21304 | 69.86134 | 35320 ft | 558 kts | 120° |
| 2026-04-30 18:56 | 34.15917 | 69.98590 | 35355 ft | 560 kts | 120° |
| 2026-04-30 18:57 | 34.10500 | 70.10970 | 35356 ft | 560 kts | 120° |
| 2026-04-30 18:57 | 34.06865 | 70.19248 | 35353 ft | 559 kts | 120° |
| 2026-04-30 18:58 | 34.01397 | 70.31673 | 35356 ft | 556 kts | 120° |
| 2026-04-30 18:59 | 33.95955 | 70.43991 | 35313 ft | 559 kts | 120° |
| 2026-04-30 19:00 | 33.88907 | 70.54922 | 35257 ft | 547 kts | 140° |
| 2026-04-30 19:00 | 33.86155 | 70.58081 | 35243 ft | 545 kts | 141° |
| 2026-04-30 19:01 | 33.75081 | 70.70678 | 35174 ft | 546 kts | 141° |
| 2026-04-30 19:02 | 33.66790 | 70.80067 | 35134 ft | 548 kts | 141° |
| 2026-04-30 19:03 | 33.55876 | 70.92737 | 35016 ft | 552 kts | 133° |
| 2026-04-30 19:03 | 33.51809 | 71.00597 | 34969 ft | 560 kts | 114° |
| 2026-04-30 19:04 | 33.49635 | 71.09510 | 34951 ft | 560 kts | 97° |
| 2026-04-30 19:04 | 33.49494 | 71.18746 | 34956 ft | 557 kts | 82° |
| 2026-04-30 19:05 | 33.50174 | 71.27953 | 34955 ft | 555 kts | 81° |
| 2026-04-30 19:06 | 33.51428 | 71.46350 | 34886 ft | 554 kts | 81° |
| 2026-04-30 19:06 | 33.52301 | 71.60175 | 34854 ft | 554 kts | 82° |
| 2026-04-30 19:07 | 33.53138 | 71.73955 | 34837 ft | 556 kts | 82° |
| 2026-04-30 19:08 | 33.54004 | 71.92430 | 34814 ft | 558 kts | 86° |
| 2026-04-30 19:09 | 33.54071 | 72.06338 | 34792 ft | 558 kts | 86° |
| 2026-04-30 19:09 | 33.54124 | 72.15608 | 34800 ft | 555 kts | 86° |
| 2026-04-30 19:10 | 33.54232 | 72.34068 | 34820 ft | 554 kts | 86° |
| 2026-04-30 19:11 | 33.54304 | 72.47931 | 34834 ft | 555 kts | 85° |
| 2026-04-30 19:12 | 33.54345 | 72.57115 | 34834 ft | 555 kts | 85° |
| 2026-04-30 19:12 | 33.54240 | 72.66387 | 34823 ft | 558 kts | 93° |
| 2026-04-30 19:13 | 33.52475 | 72.75422 | 34804 ft | 563 kts | 111° |
| 2026-04-30 19:13 | 33.48730 | 72.83587 | 34804 ft | 561 kts | 129° |
| 2026-04-30 19:14 | 33.43312 | 72.90209 | 34811 ft | 551 kts | 147° |
| 2026-04-30 19:14 | 33.36818 | 72.94788 | 34818 ft | 542 kts | 161° |
| 2026-04-30 19:15 | 33.29971 | 72.98504 | 34824 ft | 540 kts | 162° |
| 2026-04-30 19:15 | 33.19637 | 73.04016 | 34823 ft | 539 kts | 162° |
| 2026-04-30 19:16 | 33.12751 | 73.07662 | 34824 ft | 542 kts | 162° |
| 2026-04-30 19:17 | 33.02460 | 73.13090 | 34830 ft | 540 kts | 162° |
| 2026-04-30 19:17 | 32.92131 | 73.18516 | 34831 ft | 542 kts | 162° |
| 2026-04-30 19:18 | 32.81790 | 73.23933 | 34816 ft | 540 kts | 162° |
| 2026-04-30 19:19 | 32.75064 | 73.28113 | 34813 ft | 553 kts | 149° |
| 2026-04-30 19:19 | 32.65902 | 73.36416 | 34790 ft | 554 kts | 146° |
| 2026-04-30 19:20 | 32.59764 | 73.42036 | 34781 ft | 554 kts | 146° |
| 2026-04-30 19:21 | 32.50660 | 73.50340 | 34781 ft | 554 kts | 146° |
| 2026-04-30 19:22 | 32.38451 | 73.61430 | 34785 ft | 554 kts | 146° |
| 2026-04-30 19:23 | 32.20070 | 73.78048 | 34761 ft | 553 kts | 146° |
| 2026-04-30 19:24 | 32.10939 | 73.86269 | 34752 ft | 553 kts | 146° |
| 2026-04-30 19:25 | 31.95611 | 74.00022 | 34770 ft | 553 kts | 147° |
| 2026-04-30 19:26 | 31.83337 | 74.11003 | 34743 ft | 552 kts | 145° |
| 2026-04-30 19:27 | 31.74295 | 74.19377 | 34750 ft | 552 kts | 145° |
| 2026-04-30 19:28 | 31.65225 | 74.27763 | 34754 ft | 553 kts | 145° |
| 2026-04-30 19:29 | 31.53126 | 74.38905 | 34753 ft | 551 kts | 144° |
| 2026-04-30 19:30 | 31.41177 | 74.50291 | 34760 ft | 553 kts | 143° |
| 2026-04-30 19:31 | 31.29544 | 74.61974 | 34757 ft | 557 kts | 138° |
| 2026-04-30 19:31 | 31.21146 | 74.71327 | 34737 ft | 555 kts | 139° |
| 2026-04-30 19:32 | 31.15544 | 74.77512 | 34735 ft | 555 kts | 139° |
| 2026-04-30 19:32 | 31.09924 | 74.83691 | 34736 ft | 554 kts | 139° |
| 2026-04-30 19:33 | 31.04308 | 74.89843 | 34737 ft | 556 kts | 139° |
| 2026-04-30 19:33 | 30.98689 | 74.95983 | 34738 ft | 556 kts | 139° |
| 2026-04-30 19:34 | 30.93048 | 75.02132 | 34738 ft | 556 kts | 139° |
| 2026-04-30 19:35 | 30.84552 | 75.11343 | 34720 ft | 556 kts | 142° |
| 2026-04-30 19:35 | 30.78137 | 75.16256 | 34731 ft | 545 kts | 159° |
| 2026-04-30 19:36 | 30.71054 | 75.19258 | 34738 ft | 541 kts | 167° |
| 2026-04-30 19:36 | 30.60340 | 75.23254 | 34736 ft | 539 kts | 167° |
| 2026-04-30 19:37 | 30.53160 | 75.25912 | 34740 ft | 538 kts | 168° |
| 2026-04-30 19:37 | 30.46017 | 75.28545 | 34745 ft | 540 kts | 167° |
| 2026-04-30 19:38 | 30.38837 | 75.31185 | 34744 ft | 540 kts | 167° |
| 2026-04-30 19:38 | 30.31714 | 75.33800 | 34744 ft | 538 kts | 168° |
| 2026-04-30 19:39 | 30.24539 | 75.36429 | 34743 ft | 540 kts | 167° |
| 2026-04-30 19:39 | 30.17402 | 75.39039 | 34746 ft | 539 kts | 167° |
| 2026-04-30 19:40 | 30.10231 | 75.41657 | 34746 ft | 540 kts | 168° |
| 2026-04-30 19:40 | 30.03046 | 75.44276 | 34749 ft | 539 kts | 167° |
| 2026-04-30 19:41 | 29.95844 | 75.46897 | 34756 ft | 539 kts | 167° |
| 2026-04-30 19:41 | 29.88730 | 75.49619 | 34750 ft | 543 kts | 161° |
| 2026-04-30 19:42 | 29.82187 | 75.54077 | 34742 ft | 553 kts | 142° |
| 2026-04-30 19:42 | 29.76705 | 75.60360 | 34752 ft | 556 kts | 132° |
| 2026-04-30 19:43 | 29.71540 | 75.66912 | 34739 ft | 554 kts | 133° |
| 2026-04-30 19:44 | 29.63750 | 75.76733 | 34742 ft | 554 kts | 133° |
| 2026-04-30 19:44 | 29.58538 | 75.83269 | 34742 ft | 554 kts | 133° |
| 2026-04-30 19:45 | 29.53335 | 75.89776 | 34742 ft | 553 kts | 133° |
| 2026-04-30 19:45 | 29.48121 | 75.96281 | 34744 ft | 554 kts | 133° |
| 2026-04-30 19:46 | 29.42893 | 76.02791 | 34741 ft | 552 kts | 133° |
| 2026-04-30 19:46 | 29.37680 | 76.09270 | 34742 ft | 554 kts | 133° |
| 2026-04-30 19:47 | 29.32434 | 76.15778 | 34747 ft | 553 kts | 133° |
| 2026-04-30 19:47 | 29.27206 | 76.22253 | 34754 ft | 553 kts | 133° |
| 2026-04-30 19:48 | 29.21986 | 76.28707 | 34759 ft | 553 kts | 133° |
| 2026-04-30 19:48 | 29.16757 | 76.35162 | 34767 ft | 551 kts | 133° |
| 2026-04-30 19:49 | 29.11537 | 76.41596 | 34764 ft | 552 kts | 133° |
| 2026-04-30 19:49 | 29.03706 | 76.51228 | 34764 ft | 552 kts | 132° |
| 2026-04-30 19:50 | 28.98487 | 76.57673 | 34765 ft | 553 kts | 132° |
| 2026-04-30 19:50 | 28.93300 | 76.64128 | 34769 ft | 552 kts | 132° |
| 2026-04-30 19:51 | 28.88078 | 76.70614 | 34743 ft | 552 kts | 132° |
| 2026-04-30 19:51 | 28.82897 | 76.77035 | 34741 ft | 551 kts | 133° |
| 2026-04-30 19:52 | 28.77696 | 76.83471 | 34744 ft | 551 kts | 132° |
| 2026-04-30 19:52 | 28.72474 | 76.89922 | 34751 ft | 552 kts | 133° |
| 2026-04-30 19:53 | 28.67277 | 76.96330 | 34751 ft | 549 kts | 132° |
| 2026-04-30 19:53 | 28.62087 | 77.02720 | 34750 ft | 551 kts | 132° |
| 2026-04-30 19:54 | 28.56776 | 77.09060 | 34742 ft | 549 kts | 139° |
| 2026-04-30 19:54 | 28.50736 | 77.14401 | 34748 ft | 549 kts | 144° |
| 2026-04-30 19:55 | 28.44609 | 77.19577 | 34755 ft | 549 kts | 144° |
| 2026-04-30 19:55 | 28.38497 | 77.24732 | 34760 ft | 550 kts | 144° |
| 2026-04-30 19:56 | 28.32328 | 77.29929 | 34764 ft | 548 kts | 144° |
| 2026-04-30 19:56 | 28.26205 | 77.35080 | 34765 ft | 551 kts | 144° |
| 2026-04-30 19:57 | 28.20045 | 77.40255 | 34761 ft | 548 kts | 144° |
| 2026-04-30 19:57 | 28.13871 | 77.45434 | 34765 ft | 551 kts | 144° |
| 2026-04-30 19:58 | 28.07717 | 77.50588 | 34768 ft | 550 kts | 144° |
| 2026-04-30 19:58 | 28.01564 | 77.55735 | 34767 ft | 549 kts | 144° |
| 2026-04-30 19:59 | 27.95391 | 77.60891 | 34768 ft | 551 kts | 144° |
| 2026-04-30 20:00 | 27.86149 | 77.68597 | 34742 ft | 549 kts | 144° |
| 2026-04-30 20:00 | 27.79950 | 77.73733 | 34737 ft | 552 kts | 145° |
| 2026-04-30 20:01 | 27.70039 | 77.80122 | 34741 ft | 545 kts | 165° |
| 2026-04-30 20:01 | 27.62779 | 77.82340 | 34739 ft | 539 kts | 170° |
| 2026-04-30 20:02 | 27.51807 | 77.85455 | 34741 ft | 539 kts | 170° |
| 2026-04-30 20:03 | 27.40847 | 77.88560 | 34742 ft | 542 kts | 170° |
| 2026-04-30 20:03 | 27.33544 | 77.90627 | 34742 ft | 540 kts | 169° |
| 2026-04-30 20:04 | 27.26224 | 77.92695 | 34749 ft | 540 kts | 170° |
| 2026-04-30 20:05 | 27.15489 | 77.96516 | 34760 ft | 547 kts | 155° |
| 2026-04-30 20:05 | 27.06101 | 78.03899 | 34761 ft | 550 kts | 143° |
| 2026-04-30 20:06 | 27.00032 | 78.09140 | 34758 ft | 551 kts | 143° |
| 2026-04-30 20:06 | 26.93937 | 78.14387 | 34757 ft | 550 kts | 143° |
| 2026-04-30 20:07 | 26.87892 | 78.19579 | 34747 ft | 549 kts | 143° |
| 2026-04-30 20:08 | 26.78746 | 78.27416 | 34747 ft | 550 kts | 143° |
| 2026-04-30 20:08 | 26.72674 | 78.32607 | 34751 ft | 550 kts | 143° |
| 2026-04-30 20:09 | 26.66570 | 78.37817 | 34747 ft | 548 kts | 143° |
| 2026-04-30 20:09 | 26.57481 | 78.45563 | 34747 ft | 550 kts | 143° |
| 2026-04-30 20:10 | 26.48321 | 78.53352 | 34749 ft | 549 kts | 143° |
| 2026-04-30 20:11 | 26.39223 | 78.61072 | 34751 ft | 550 kts | 143° |
| 2026-04-30 20:11 | 26.33088 | 78.66270 | 34749 ft | 550 kts | 143° |
| 2026-04-30 20:12 | 26.23950 | 78.73998 | 34752 ft | 549 kts | 143° |
| 2026-04-30 20:13 | 26.17885 | 78.79118 | 34754 ft | 549 kts | 143° |
| 2026-04-30 20:13 | 26.11770 | 78.84241 | 34753 ft | 548 kts | 144° |
| 2026-04-30 20:14 | 26.05634 | 78.89298 | 34757 ft | 549 kts | 144° |
| 2026-04-30 20:14 | 25.99511 | 78.94340 | 34759 ft | 547 kts | 144° |
| 2026-04-30 20:15 | 25.93380 | 78.99383 | 34760 ft | 549 kts | 144° |
| 2026-04-30 20:15 | 25.87227 | 79.04439 | 34745 ft | 549 kts | 144° |
| 2026-04-30 20:16 | 25.81080 | 79.09485 | 34752 ft | 550 kts | 144° |
| 2026-04-30 20:16 | 25.74910 | 79.14544 | 34756 ft | 548 kts | 144° |
| 2026-04-30 20:17 | 25.68765 | 79.19576 | 34758 ft | 549 kts | 143° |
| 2026-04-30 20:17 | 25.62620 | 79.24602 | 34762 ft | 548 kts | 144° |
| 2026-04-30 20:18 | 25.56497 | 79.29602 | 34767 ft | 549 kts | 144° |
| 2026-04-30 20:18 | 25.50335 | 79.34628 | 34768 ft | 549 kts | 144° |
| 2026-04-30 20:19 | 25.44168 | 79.39651 | 34771 ft | 550 kts | 143° |
| 2026-04-30 20:19 | 25.38037 | 79.44640 | 34771 ft | 548 kts | 144° |
| 2026-04-30 20:20 | 25.31863 | 79.49656 | 34772 ft | 547 kts | 143° |
| 2026-04-30 20:20 | 25.25706 | 79.54652 | 34775 ft | 548 kts | 143° |
| 2026-04-30 20:21 | 25.19575 | 79.59620 | 34779 ft | 548 kts | 143° |
| 2026-04-30 20:21 | 25.13424 | 79.64599 | 34781 ft | 548 kts | 143° |
| 2026-04-30 20:22 | 25.07261 | 79.69581 | 34776 ft | 547 kts | 144° |
| 2026-04-30 20:22 | 25.01089 | 79.74563 | 34782 ft | 549 kts | 144° |
| 2026-04-30 20:23 | 24.94933 | 79.79527 | 34778 ft | 548 kts | 144° |
| 2026-04-30 20:23 | 24.88779 | 79.84483 | 34770 ft | 548 kts | 144° |
| 2026-04-30 20:24 | 24.82587 | 79.89473 | 34767 ft | 548 kts | 142° |
| 2026-04-30 20:24 | 24.77203 | 79.95371 | 35009 ft | 555 kts | 128° |
| 2026-04-30 20:24 | 24.74738 | 79.98635 | 35744 ft | 550 kts | 127° |
| 2026-04-30 20:25 | 24.69927 | 80.05026 | 36789 ft | 544 kts | 128° |
| 2026-04-30 20:26 | 24.62707 | 80.14590 | 36809 ft | 541 kts | 128° |
| 2026-04-30 20:26 | 24.55486 | 80.24129 | 36819 ft | 542 kts | 128° |
| 2026-04-30 20:27 | 24.45817 | 80.36865 | 36821 ft | 542 kts | 128° |
| 2026-04-30 20:28 | 24.36195 | 80.49504 | 36834 ft | 541 kts | 128° |
| 2026-04-30 20:30 | 24.24117 | 80.65321 | 36846 ft | 542 kts | 128° |
| 2026-04-30 20:31 | 24.09584 | 80.84287 | 36836 ft | 541 kts | 128° |
| 2026-04-30 20:32 | 23.97401 | 81.00128 | 36846 ft | 543 kts | 128° |
| 2026-04-30 20:33 | 23.90145 | 81.09539 | 36834 ft | 543 kts | 128° |
| 2026-04-30 20:34 | 23.82827 | 81.19011 | 36822 ft | 543 kts | 128° |
| 2026-04-30 20:35 | 23.75506 | 81.28470 | 36831 ft | 543 kts | 128° |
| 2026-04-30 20:35 | 23.68226 | 81.37859 | 36841 ft | 542 kts | 128° |
| 2026-04-30 20:36 | 23.63349 | 81.44137 | 36846 ft | 542 kts | 128° |
| 2026-04-30 20:37 | 23.56024 | 81.53553 | 36851 ft | 541 kts | 128° |
| 2026-04-30 20:37 | 23.51166 | 81.59789 | 36855 ft | 541 kts | 128° |
| 2026-04-30 20:38 | 23.46283 | 81.66047 | 36850 ft | 541 kts | 129° |
| 2026-04-30 20:38 | 23.41388 | 81.72315 | 36845 ft | 543 kts | 129° |
| 2026-04-30 20:39 | 23.34087 | 81.81646 | 36844 ft | 541 kts | 129° |
| 2026-04-30 20:40 | 23.26758 | 81.90998 | 36847 ft | 540 kts | 129° |
| 2026-04-30 20:40 | 23.21907 | 81.97176 | 36849 ft | 539 kts | 129° |
| 2026-04-30 20:41 | 23.14596 | 82.06477 | 36844 ft | 539 kts | 129° |
| 2026-04-30 20:41 | 23.09715 | 82.12676 | 36843 ft | 540 kts | 129° |
| 2026-04-30 20:42 | 23.04861 | 82.18881 | 36851 ft | 538 kts | 127° |
| 2026-04-30 20:43 | 22.97775 | 82.28295 | 36848 ft | 538 kts | 127° |
| 2026-04-30 20:43 | 22.93024 | 82.34593 | 36858 ft | 537 kts | 127° |
| 2026-04-30 20:44 | 22.85930 | 82.43973 | 36853 ft | 538 kts | 127° |
| 2026-04-30 20:45 | 22.76404 | 82.56531 | 36855 ft | 538 kts | 127° |
| 2026-04-30 20:45 | 22.71648 | 82.62789 | 36853 ft | 538 kts | 127° |
| 2026-04-30 20:46 | 22.62132 | 82.75285 | 36838 ft | 537 kts | 128° |
| 2026-04-30 20:47 | 22.55014 | 82.84612 | 36837 ft | 538 kts | 128° |
| 2026-04-30 20:48 | 22.47880 | 82.93943 | 36830 ft | 536 kts | 128° |
| 2026-04-30 20:48 | 22.43112 | 83.00170 | 36824 ft | 537 kts | 128° |
| 2026-04-30 20:49 | 22.38383 | 83.06338 | 36826 ft | 535 kts | 128° |
| 2026-04-30 20:50 | 22.31258 | 83.15620 | 36827 ft | 535 kts | 128° |
| 2026-04-30 20:50 | 22.26500 | 83.21809 | 36832 ft | 535 kts | 128° |
| 2026-04-30 20:51 | 22.21731 | 83.28004 | 36836 ft | 535 kts | 128° |
| 2026-04-30 20:51 | 22.14702 | 83.37295 | 36830 ft | 534 kts | 126° |
| 2026-04-30 20:52 | 22.10113 | 83.43552 | 36824 ft | 533 kts | 126° |
| 2026-04-30 20:53 | 22.03065 | 83.52866 | 36817 ft | 531 kts | 128° |
| 2026-04-30 20:53 | 21.98298 | 83.58961 | 36812 ft | 531 kts | 128° |
| 2026-04-30 20:54 | 21.91182 | 83.68061 | 36810 ft | 530 kts | 128° |
| 2026-04-30 20:55 | 21.84074 | 83.77144 | 36802 ft | 529 kts | 129° |
| 2026-04-30 20:55 | 21.79301 | 83.83237 | 36798 ft | 530 kts | 128° |
| 2026-04-30 20:56 | 21.72207 | 83.92282 | 36800 ft | 529 kts | 129° |
| 2026-04-30 20:57 | 21.65099 | 84.01368 | 36797 ft | 530 kts | 128° |
| 2026-04-30 20:57 | 21.60409 | 84.07470 | 36806 ft | 528 kts | 127° |
| 2026-04-30 20:58 | 21.53369 | 84.16613 | 36813 ft | 529 kts | 128° |
| 2026-04-30 20:58 | 21.48699 | 84.22667 | 36829 ft | 528 kts | 128° |
| 2026-04-30 20:59 | 21.41678 | 84.31753 | 36837 ft | 528 kts | 128° |
| 2026-04-30 21:00 | 21.32303 | 84.43860 | 36837 ft | 530 kts | 128° |
| 2026-04-30 21:01 | 21.25206 | 84.53006 | 36818 ft | 530 kts | 128° |
| 2026-04-30 21:02 | 21.18151 | 84.62083 | 36816 ft | 530 kts | 128° |
| 2026-04-30 21:02 | 21.13411 | 84.68173 | 36809 ft | 528 kts | 128° |
| 2026-04-30 21:03 | 21.08708 | 84.74208 | 36814 ft | 528 kts | 128° |
| 2026-04-30 21:03 | 21.04013 | 84.80228 | 36822 ft | 530 kts | 128° |
| 2026-04-30 21:04 | 20.99261 | 84.86314 | 36821 ft | 530 kts | 128° |
| 2026-04-30 21:04 | 20.92199 | 84.95345 | 36815 ft | 530 kts | 128° |
| 2026-04-30 21:05 | 20.87451 | 85.01410 | 36801 ft | 530 kts | 128° |
| 2026-04-30 21:05 | 20.82721 | 85.07445 | 36803 ft | 529 kts | 128° |
| 2026-04-30 21:06 | 20.77999 | 85.13463 | 36806 ft | 529 kts | 128° |
| 2026-04-30 21:06 | 20.73261 | 85.19494 | 36806 ft | 528 kts | 128° |
| 2026-04-30 21:07 | 20.68561 | 85.25472 | 36800 ft | 528 kts | 128° |
| 2026-04-30 21:07 | 20.63802 | 85.31519 | 36796 ft | 528 kts | 129° |
| 2026-04-30 21:08 | 20.59078 | 85.37512 | 36792 ft | 528 kts | 129° |
| 2026-04-30 21:08 | 20.54360 | 85.43493 | 36792 ft | 528 kts | 128° |
| 2026-04-30 21:09 | 20.49622 | 85.49493 | 36794 ft | 527 kts | 129° |
| 2026-04-30 21:09 | 20.44906 | 85.55460 | 36787 ft | 527 kts | 128° |
| 2026-04-30 21:10 | 20.40182 | 85.61429 | 36784 ft | 525 kts | 129° |
| 2026-04-30 21:10 | 20.35450 | 85.67403 | 36772 ft | 526 kts | 129° |
| 2026-04-30 21:11 | 20.30761 | 85.73316 | 36770 ft | 525 kts | 129° |
| 2026-04-30 21:11 | 20.26028 | 85.79279 | 36768 ft | 524 kts | 129° |
| 2026-04-30 21:12 | 20.20969 | 85.84857 | 36769 ft | 527 kts | 135° |
| 2026-04-30 21:12 | 20.15652 | 85.90308 | 36772 ft | 527 kts | 136° |
| 2026-04-30 21:13 | 20.10366 | 85.95721 | 36777 ft | 529 kts | 136° |
| 2026-04-30 21:13 | 20.05101 | 86.01109 | 36775 ft | 528 kts | 135° |
| 2026-04-30 21:14 | 19.99797 | 86.06533 | 36774 ft | 527 kts | 135° |
| 2026-04-30 21:14 | 19.94516 | 86.11932 | 36774 ft | 525 kts | 135° |
| 2026-04-30 21:15 | 19.89255 | 86.17330 | 36774 ft | 524 kts | 135° |
| 2026-04-30 21:15 | 19.84119 | 86.22759 | 36772 ft | 522 kts | 134° |
| 2026-04-30 21:16 | 19.78990 | 86.28178 | 36783 ft | 519 kts | 135° |
| 2026-04-30 21:16 | 19.73833 | 86.33616 | 36781 ft | 521 kts | 135° |
| 2026-04-30 21:17 | 19.68659 | 86.39064 | 36788 ft | 523 kts | 135° |
| 2026-04-30 21:17 | 19.63516 | 86.44473 | 36788 ft | 522 kts | 135° |
| 2026-04-30 21:18 | 19.58337 | 86.49886 | 36794 ft | 522 kts | 135° |
| 2026-04-30 21:18 | 19.53157 | 86.55271 | 36792 ft | 519 kts | 135° |
| 2026-04-30 21:19 | 19.48011 | 86.60617 | 36785 ft | 520 kts | 135° |
| 2026-04-30 21:19 | 19.42853 | 86.65971 | 36778 ft | 519 kts | 135° |
| 2026-04-30 21:20 | 19.37681 | 86.71336 | 36771 ft | 519 kts | 135° |
| 2026-04-30 21:20 | 19.32527 | 86.76676 | 36779 ft | 519 kts | 135° |
| 2026-04-30 21:21 | 19.27360 | 86.82026 | 36782 ft | 517 kts | 136° |
| 2026-04-30 21:22 | 19.19625 | 86.90025 | 36786 ft | 518 kts | 135° |
| 2026-04-30 21:23 | 19.09324 | 87.00661 | 36789 ft | 518 kts | 135° |
| 2026-04-30 21:23 | 19.01559 | 87.08665 | 36799 ft | 518 kts | 135° |
| 2026-04-30 21:24 | 18.96425 | 87.13950 | 36796 ft | 518 kts | 135° |
| 2026-04-30 21:24 | 18.91271 | 87.19253 | 36799 ft | 515 kts | 136° |
| 2026-04-30 21:25 | 18.83574 | 87.27161 | 36808 ft | 513 kts | 136° |
| 2026-04-30 21:26 | 18.75890 | 87.35046 | 36821 ft | 514 kts | 136° |
| 2026-04-30 21:27 | 18.68211 | 87.42916 | 36829 ft | 512 kts | 136° |
| 2026-04-30 21:27 | 18.63066 | 87.48183 | 36828 ft | 513 kts | 136° |
| 2026-04-30 21:28 | 18.55391 | 87.56030 | 36832 ft | 512 kts | 136° |
| 2026-04-30 21:29 | 18.47743 | 87.63841 | 36841 ft | 511 kts | 136° |
| 2026-04-30 21:30 | 18.34964 | 87.76867 | 36827 ft | 511 kts | 136° |
| 2026-04-30 21:31 | 18.22283 | 87.89882 | 36826 ft | 509 kts | 136° |
| 2026-04-30 21:32 | 18.14716 | 87.97734 | 36831 ft | 510 kts | 136° |
| 2026-04-30 21:32 | 18.09647 | 88.02985 | 36830 ft | 510 kts | 136° |
| 2026-04-30 21:33 | 18.02081 | 88.10812 | 36833 ft | 506 kts | 136° |
| 2026-04-30 21:34 | 17.97051 | 88.16009 | 36834 ft | 506 kts | 136° |
| 2026-04-30 21:34 | 17.89535 | 88.23766 | 36835 ft | 505 kts | 136° |
| 2026-04-30 21:35 | 17.84536 | 88.28920 | 36840 ft | 505 kts | 136° |
| 2026-04-30 21:35 | 17.79494 | 88.34114 | 36847 ft | 505 kts | 137° |
| 2026-04-30 21:36 | 17.74496 | 88.39259 | 36844 ft | 503 kts | 137° |
| 2026-04-30 21:37 | 17.64511 | 88.49523 | 36849 ft | 503 kts | 137° |
| 2026-04-30 21:37 | 17.59531 | 88.54636 | 36847 ft | 500 kts | 137° |
| 2026-04-30 21:38 | 17.54536 | 88.59760 | 36858 ft | 502 kts | 137° |
| 2026-04-30 21:38 | 17.49582 | 88.64838 | 36858 ft | 499 kts | 137° |
| 2026-04-30 21:39 | 17.44618 | 88.69923 | 36844 ft | 498 kts | 137° |
| 2026-04-30 21:39 | 17.39635 | 88.75022 | 36846 ft | 499 kts | 137° |
| 2026-04-30 21:40 | 17.34651 | 88.80118 | 36840 ft | 499 kts | 137° |
| 2026-04-30 21:40 | 17.29691 | 88.85187 | 36835 ft | 499 kts | 137° |
| 2026-04-30 21:41 | 17.24762 | 88.90218 | 36832 ft | 498 kts | 137° |
| 2026-04-30 21:41 | 17.19790 | 88.95290 | 36833 ft | 497 kts | 137° |
| 2026-04-30 21:42 | 17.14881 | 89.00369 | 36844 ft | 498 kts | 137° |
| 2026-04-30 21:42 | 17.09962 | 89.05478 | 36854 ft | 498 kts | 137° |
| 2026-04-30 21:43 | 17.05030 | 89.10593 | 36848 ft | 497 kts | 137° |
| 2026-04-30 21:43 | 17.00126 | 89.15675 | 36849 ft | 498 kts | 137° |
| 2026-04-30 21:44 | 16.95210 | 89.20763 | 36850 ft | 498 kts | 137° |
| 2026-04-30 21:44 | 16.90301 | 89.25839 | 36850 ft | 497 kts | 137° |
| 2026-04-30 21:45 | 16.85354 | 89.30952 | 36850 ft | 498 kts | 137° |
| 2026-04-30 21:45 | 16.80430 | 89.36037 | 36851 ft | 498 kts | 137° |
| 2026-04-30 21:46 | 16.75517 | 89.41104 | 36852 ft | 498 kts | 137° |
| 2026-04-30 21:46 | 16.70584 | 89.46190 | 36851 ft | 498 kts | 137° |
| 2026-04-30 21:47 | 16.65667 | 89.51256 | 36855 ft | 497 kts | 137° |
| 2026-04-30 21:47 | 16.60742 | 89.56325 | 36858 ft | 497 kts | 137° |
| 2026-04-30 21:48 | 16.55800 | 89.61406 | 36857 ft | 498 kts | 137° |
| 2026-04-30 21:48 | 16.50876 | 89.66467 | 36854 ft | 498 kts | 138° |
| 2026-04-30 21:49 | 16.45962 | 89.71515 | 36857 ft | 495 kts | 138° |
| 2026-04-30 21:49 | 16.41050 | 89.76555 | 36859 ft | 498 kts | 138° |
| 2026-04-30 21:50 | 16.36106 | 89.81624 | 36861 ft | 497 kts | 138° |
| 2026-04-30 21:50 | 16.31190 | 89.86661 | 36862 ft | 497 kts | 138° |
| 2026-04-30 21:51 | 16.26282 | 89.91686 | 36865 ft | 496 kts | 138° |
| 2026-04-30 21:51 | 16.21346 | 89.96736 | 36862 ft | 497 kts | 138° |
| 2026-04-30 21:52 | 16.16419 | 90.01774 | 36862 ft | 496 kts | 138° |
| 2026-04-30 21:52 | 16.11491 | 90.06808 | 36864 ft | 496 kts | 138° |
| 2026-04-30 21:53 | 16.06576 | 90.11825 | 36867 ft | 496 kts | 138° |
| 2026-04-30 21:53 | 16.01654 | 90.16846 | 36868 ft | 496 kts | 138° |
| 2026-04-30 21:54 | 15.96805 | 90.21909 | 36869 ft | 497 kts | 137° |
| 2026-04-30 21:54 | 15.91936 | 90.27023 | 36868 ft | 495 kts | 137° |
| 2026-04-30 21:55 | 15.87088 | 90.32105 | 36870 ft | 495 kts | 137° |
| 2026-04-30 21:55 | 15.82249 | 90.37172 | 36870 ft | 495 kts | 138° |
| 2026-04-30 21:56 | 15.77373 | 90.42273 | 36874 ft | 495 kts | 137° |
| 2026-04-30 21:56 | 15.72511 | 90.47355 | 36873 ft | 497 kts | 137° |
| 2026-04-30 21:57 | 15.67684 | 90.52396 | 36874 ft | 494 kts | 138° |
| 2026-04-30 21:57 | 15.62811 | 90.57481 | 36873 ft | 494 kts | 138° |
| 2026-04-30 21:58 | 15.57983 | 90.62515 | 36874 ft | 493 kts | 138° |
| 2026-04-30 21:58 | 15.53124 | 90.67578 | 36861 ft | 494 kts | 138° |
| 2026-04-30 21:59 | 15.48296 | 90.72606 | 36860 ft | 494 kts | 138° |
| 2026-04-30 22:00 | 15.41007 | 90.80190 | 36858 ft | 494 kts | 139° |
| 2026-04-30 22:00 | 15.33758 | 90.87723 | 36864 ft | 494 kts | 138° |
| 2026-04-30 22:01 | 15.28897 | 90.92771 | 36871 ft | 492 kts | 139° |
| 2026-04-30 22:01 | 15.24080 | 90.97769 | 36871 ft | 492 kts | 139° |
| 2026-04-30 22:02 | 15.19228 | 91.02799 | 36866 ft | 492 kts | 138° |
| 2026-04-30 22:02 | 15.14393 | 91.07810 | 36864 ft | 492 kts | 139° |
| 2026-04-30 22:03 | 15.09541 | 91.12834 | 36867 ft | 491 kts | 139° |
| 2026-04-30 22:03 | 15.04739 | 91.17803 | 36868 ft | 491 kts | 139° |
| 2026-04-30 22:04 | 14.99903 | 91.22804 | 36870 ft | 492 kts | 139° |
| 2026-04-30 22:05 | 14.92608 | 91.30341 | 36871 ft | 493 kts | 139° |
| 2026-04-30 22:05 | 14.87777 | 91.35329 | 36875 ft | 492 kts | 139° |
| 2026-04-30 22:06 | 14.82898 | 91.40361 | 36873 ft | 494 kts | 139° |
| 2026-04-30 22:06 | 14.75618 | 91.47865 | 36876 ft | 495 kts | 139° |
| 2026-04-30 22:07 | 14.70759 | 91.52870 | 36876 ft | 494 kts | 139° |
| 2026-04-30 22:07 | 14.65897 | 91.57875 | 36876 ft | 492 kts | 139° |
| 2026-04-30 22:08 | 14.61033 | 91.62878 | 36877 ft | 494 kts | 139° |
| 2026-04-30 22:08 | 14.56179 | 91.67866 | 36867 ft | 493 kts | 139° |
| 2026-04-30 22:09 | 14.51326 | 91.72852 | 36865 ft | 493 kts | 139° |
| 2026-04-30 22:09 | 14.46430 | 91.77876 | 36866 ft | 494 kts | 139° |
| 2026-04-30 22:10 | 14.41578 | 91.82855 | 36867 ft | 494 kts | 139° |
| 2026-04-30 22:10 | 14.36701 | 91.87855 | 36866 ft | 494 kts | 139° |
| 2026-04-30 22:11 | 14.29390 | 91.95343 | 36868 ft | 494 kts | 139° |
| 2026-04-30 22:12 | 14.24506 | 92.00344 | 36866 ft | 494 kts | 139° |
| 2026-04-30 22:12 | 14.19718 | 92.05388 | 36868 ft | 493 kts | 138° |
| 2026-04-30 22:13 | 14.14928 | 92.10445 | 36868 ft | 494 kts | 138° |
| 2026-04-30 22:13 | 14.10114 | 92.15521 | 36868 ft | 494 kts | 138° |
| 2026-04-30 22:14 | 14.05308 | 92.20582 | 36869 ft | 493 kts | 138° |
| 2026-04-30 22:14 | 14.00534 | 92.25604 | 36869 ft | 493 kts | 138° |
| 2026-04-30 22:15 | 13.95731 | 92.30654 | 36869 ft | 492 kts | 138° |
| 2026-04-30 22:15 | 13.90929 | 92.35626 | 36870 ft | 491 kts | 139° |
| 2026-04-30 22:16 | 13.86000 | 92.40548 | 36873 ft | 491 kts | 139° |
| 2026-04-30 22:17 | 13.76226 | 92.50319 | 36874 ft | 491 kts | 139° |
| 2026-04-30 22:17 | 13.68878 | 92.57667 | 36875 ft | 489 kts | 139° |
| 2026-04-30 22:18 | 13.61571 | 92.64970 | 36876 ft | 488 kts | 139° |
| 2026-04-30 22:19 | 13.54273 | 92.72258 | 36868 ft | 489 kts | 140° |
| 2026-04-30 22:20 | 13.46973 | 92.79542 | 36877 ft | 489 kts | 139° |
| 2026-04-30 22:20 | 13.39652 | 92.86841 | 36891 ft | 488 kts | 139° |
| 2026-04-30 22:21 | 13.34782 | 92.91693 | 36893 ft | 488 kts | 139° |
| 2026-04-30 22:21 | 13.29924 | 92.96530 | 36875 ft | 485 kts | 139° |
| 2026-04-30 22:22 | 13.25063 | 93.01366 | 36863 ft | 484 kts | 139° |
| 2026-04-30 22:22 | 13.20227 | 93.06177 | 36853 ft | 484 kts | 139° |
| 2026-04-30 22:23 | 13.15389 | 93.10985 | 36852 ft | 485 kts | 139° |
| 2026-04-30 22:23 | 13.10550 | 93.15792 | 36849 ft | 483 kts | 139° |
| 2026-04-30 22:24 | 13.05711 | 93.20596 | 36849 ft | 484 kts | 139° |
| 2026-04-30 22:24 | 13.00875 | 93.25394 | 36847 ft | 484 kts | 139° |
| 2026-04-30 22:25 | 12.96046 | 93.30183 | 36851 ft | 483 kts | 139° |
| 2026-04-30 22:25 | 12.91223 | 93.34963 | 36858 ft | 481 kts | 139° |
| 2026-04-30 22:26 | 12.83994 | 93.42121 | 36871 ft | 482 kts | 138° |
| 2026-04-30 22:27 | 12.79175 | 93.46891 | 36874 ft | 481 kts | 138° |
| 2026-04-30 22:27 | 12.71967 | 93.54019 | 36874 ft | 482 kts | 139° |
| 2026-04-30 22:28 | 12.64740 | 93.61159 | 36871 ft | 481 kts | 139° |
| 2026-04-30 22:29 | 12.55090 | 93.70686 | 36867 ft | 482 kts | 139° |
| 2026-04-30 22:31 | 12.38254 | 93.87283 | 36865 ft | 478 kts | 139° |
| 2026-04-30 22:32 | 12.26257 | 93.99089 | 36867 ft | 478 kts | 139° |
| 2026-04-30 22:33 | 12.14298 | 94.10930 | 36865 ft | 479 kts | 138° |
| 2026-04-30 22:35 | 12.02378 | 94.22778 | 36851 ft | 477 kts | 138° |
| 2026-04-30 22:36 | 11.90518 | 94.34545 | 36844 ft | 478 kts | 138° |
| 2026-04-30 22:37 | 11.81072 | 94.44096 | 36857 ft | 479 kts | 133° |
| 2026-04-30 22:38 | 11.72385 | 94.54457 | 36850 ft | 480 kts | 133° |
| 2026-04-30 22:39 | 11.65840 | 94.62188 | 36851 ft | 479 kts | 133° |
| 2026-04-30 22:40 | 11.52727 | 94.77588 | 36857 ft | 479 kts | 133° |
| 2026-04-30 22:41 | 11.41818 | 94.90364 | 36866 ft | 479 kts | 133° |
| 2026-04-30 22:43 | 11.28696 | 95.05708 | 36867 ft | 478 kts | 133° |
| 2026-04-30 22:44 | 11.19950 | 95.15921 | 36866 ft | 478 kts | 133° |
| 2026-04-30 22:45 | 11.06853 | 95.31197 | 36867 ft | 478 kts | 133° |
| 2026-04-30 22:47 | 10.93723 | 95.46487 | 36866 ft | 478 kts | 133° |
| 2026-04-30 22:48 | 10.84953 | 95.56688 | 36870 ft | 477 kts | 133° |
| 2026-04-30 22:49 | 10.71855 | 95.71905 | 36851 ft | 477 kts | 133° |
| 2026-04-30 22:51 | 10.58736 | 95.87125 | 36847 ft | 476 kts | 133° |
| 2026-04-30 22:52 | 10.52204 | 95.94694 | 36846 ft | 476 kts | 133° |
| 2026-04-30 22:53 | 10.43489 | 96.04787 | 36845 ft | 474 kts | 133° |
| 2026-04-30 22:53 | 10.36934 | 96.12369 | 36845 ft | 475 kts | 133° |
| 2026-04-30 22:55 | 10.26046 | 96.24956 | 36854 ft | 475 kts | 133° |
| 2026-04-30 22:56 | 10.17311 | 96.35043 | 36860 ft | 475 kts | 133° |
| 2026-04-30 22:57 | 10.06426 | 96.47599 | 36866 ft | 475 kts | 133° |
| 2026-04-30 22:58 | 9.97446 | 96.57417 | 36869 ft | 473 kts | 139° |
| 2026-04-30 22:59 | 9.82958 | 96.71024 | 36866 ft | 472 kts | 139° |